createdAt,value
2017-11-03T10:36:04.512Z,25.30
2017-11-03T10:38:31.962Z,24.50
2017-11-03T10:40:59.404Z,23.43
2017-11-03T10:43:26.852Z,22.67
2017-11-03T10:45:54.291Z,22.97
2017-11-03T10:48:22.513Z,23.90
2017-11-03T10:50:49.959Z,20.80
2017-11-03T10:53:17.416Z,22.47
2017-11-03T10:55:44.875Z,20.40
2017-11-03T10:58:12.325Z,21.47
2017-11-03T11:00:39.759Z,22.27
2017-11-03T11:03:07.211Z,22.67
2017-11-03T11:05:35.428Z,21.67
2017-11-03T11:08:02.884Z,23.17
2017-11-03T11:10:30.326Z,21.50
2017-11-03T11:12:57.774Z,19.93
2017-11-03T11:15:25.218Z,20.53
2017-11-03T11:17:52.668Z,20.30
2017-11-03T11:20:20.877Z,19.43
2017-11-03T11:22:48.320Z,19.23
2017-11-03T11:25:15.758Z,22.53
2017-11-03T11:27:43.200Z,19.60
2017-11-03T11:30:11.405Z,20.40
2017-11-03T11:32:38.877Z,19.37
2017-11-03T11:35:06.330Z,19.23
2017-11-03T14:05:00.585Z,14.43
2017-11-03T14:07:28.068Z,13.43
2017-11-03T14:09:55.514Z,12.60
2017-11-03T14:12:23.731Z,12.90
2017-11-03T14:14:51.179Z,12.53
2017-11-03T14:17:18.627Z,12.13
2017-11-03T14:19:46.082Z,11.93
2017-11-03T14:22:13.543Z,12.30
2017-11-03T14:24:41.000Z,14.50
2017-11-03T14:27:08.452Z,11.77
2017-11-03T14:29:35.894Z,12.80
2017-11-03T14:32:03.337Z,12.60
2017-11-03T14:34:31.550Z,12.80
2017-11-03T14:36:58.995Z,14.87
2017-11-03T14:39:26.452Z,11.30
2017-11-03T14:41:53.896Z,12.53
2017-11-03T14:44:21.338Z,12.77
2017-11-03T14:46:48.785Z,12.80
2017-11-03T14:49:16.993Z,12.03
2017-11-03T14:51:44.453Z,12.60
2017-11-03T14:54:11.903Z,11.90
2017-11-03T14:56:39.350Z,13.20
2017-11-03T14:59:06.830Z,12.57
2017-11-03T15:01:34.289Z,12.53
2017-11-03T15:04:01.731Z,12.30
2017-11-03T15:06:29.165Z,12.23
2017-11-03T15:08:56.606Z,12.57
2017-11-03T15:11:24.815Z,11.20
2017-11-03T15:13:52.283Z,13.40
2017-11-03T15:16:19.727Z,10.93
2017-11-03T15:18:47.174Z,10.07
2017-11-03T15:21:14.619Z,10.57
2017-11-03T15:23:42.065Z,10.50
2017-11-03T15:26:10.279Z,10.90
2017-11-03T15:28:37.727Z,10.37
2017-11-03T15:31:05.179Z,10.20
2017-11-03T15:33:32.634Z,10.27
2017-11-03T15:36:00.091Z,10.20
2017-11-03T15:38:27.528Z,9.23
2017-11-03T15:40:54.976Z,10.03
2017-11-03T15:43:23.230Z,9.33
2017-11-03T15:45:50.671Z,9.90
2017-11-03T15:48:18.124Z,13.17
2017-11-03T15:50:45.579Z,13.80
2017-11-03T15:53:13.023Z,12.40
2017-11-03T15:55:40.467Z,11.60
2017-11-03T15:58:07.915Z,10.47
2017-11-03T16:00:35.372Z,10.20
2017-11-03T16:03:02.804Z,11.90
2017-11-03T16:05:30.251Z,11.40
2017-11-03T16:07:58.473Z,11.57
2017-11-03T16:10:25.914Z,13.13
2017-11-03T16:12:53.368Z,11.73
2017-11-03T16:15:20.806Z,12.97
2017-11-03T16:17:48.255Z,16.50
2017-11-03T16:20:15.691Z,17.77
2017-11-03T16:22:43.911Z,21.50
2017-11-03T16:25:11.360Z,17.20
2017-11-03T16:27:38.817Z,16.20
2017-11-03T16:30:06.255Z,15.80
2017-11-03T16:32:33.698Z,14.97
2017-11-03T16:35:01.906Z,14.30
2017-11-03T16:37:29.362Z,14.10
2017-11-03T16:39:56.809Z,19.50
2017-11-03T20:06:04.103Z,14.20
2017-11-03T20:08:31.726Z,14.55
2017-11-03T20:10:59.918Z,14.50
2017-11-03T20:13:27.426Z,14.20
2017-11-03T20:15:55.938Z,15.90
2017-11-03T20:18:23.463Z,16.77
2017-11-03T20:20:50.961Z,16.57
2017-11-03T20:23:18.491Z,16.60
2017-11-03T22:16:14.426Z,13.38
2017-11-03T22:18:42.639Z,13.90
2017-11-03T22:21:10.086Z,15.53
2017-11-03T22:23:37.539Z,14.50
2017-11-03T22:26:04.984Z,15.97
2017-11-03T22:28:32.491Z,16.40
2017-11-03T22:31:01.079Z,19.60
2017-11-03T22:33:28.520Z,21.80
2017-11-03T22:35:55.965Z,19.67
2017-11-03T22:38:23.402Z,18.17
2017-11-03T22:40:50.855Z,18.57
2017-11-03T22:43:18.851Z,19.67
2017-11-03T22:45:46.294Z,19.70
2017-11-03T22:48:13.745Z,19.83
2017-11-03T22:50:41.712Z,19.70
2017-11-03T22:53:09.196Z,20.40
2017-11-03T22:55:36.622Z,18.73
2017-11-03T22:58:04.523Z,18.63
2017-11-03T23:00:32.475Z,20.23
2017-11-03T23:02:59.923Z,19.20
2017-11-03T23:05:27.396Z,19.70
2017-11-03T23:07:54.847Z,19.27
2017-11-03T23:10:22.915Z,19.60
2017-11-03T23:12:50.415Z,19.00
2017-11-03T23:15:18.611Z,19.33
2017-11-03T23:17:46.056Z,18.60
2017-11-03T23:20:13.496Z,19.60
2017-11-03T23:22:41.715Z,18.07
2017-11-03T23:25:09.156Z,18.10
2017-11-03T23:27:36.602Z,18.13
2017-11-03T23:30:04.276Z,18.17
2017-11-03T23:32:31.720Z,18.00
2017-11-03T23:34:59.165Z,18.43
2017-11-03T23:37:26.605Z,18.23
2017-11-03T23:39:54.823Z,18.23
2017-11-03T23:42:22.269Z,19.10
2017-11-03T23:44:49.738Z,18.33
2017-11-03T23:47:17.185Z,18.90
2017-11-03T23:49:44.623Z,18.10
2017-11-03T23:52:12.072Z,18.70
2017-11-03T23:54:40.275Z,19.47
2017-11-03T23:57:07.736Z,16.70
2017-11-03T23:59:36.194Z,19.70
